createdAt,value
2023-08-13T00:01:29.139Z,18.1
2023-08-13T00:03:10.310Z,18.1
2023-08-13T00:04:51.021Z,18.1
2023-08-13T00:06:31.514Z,18.1
2023-08-13T00:08:12.688Z,18.1
2023-08-13T00:09:53.758Z,18.1
2023-08-13T00:11:34.242Z,18.1
2023-08-13T00:13:14.702Z,18.1
2023-08-13T00:14:55.135Z,18.1
2023-08-13T00:16:35.832Z,18.1
2023-08-13T00:18:16.358Z,18.1
2023-08-13T00:19:56.817Z,18.1
2023-08-13T00:21:37.300Z,18.1
2023-08-13T00:23:17.720Z,18.1
2023-08-13T00:24:58.169Z,18.1
2023-08-13T00:26:38.645Z,18.1
2023-08-13T00:28:19.109Z,18.1
2023-08-13T00:29:59.539Z,18.1
2023-08-13T00:31:40.077Z,18.1
2023-08-13T00:33:20.553Z,18.1
2023-08-13T00:35:01.035Z,18.1
2023-08-13T00:36:41.484Z,18.1
2023-08-13T00:38:21.924Z,18.1
2023-08-13T00:40:02.467Z,18.1
2023-08-13T00:41:59.839Z,18.1
2023-08-13T00:43:40.324Z,18.1
2023-08-13T00:45:20.874Z,18.1
2023-08-13T00:47:01.309Z,18.1
2023-08-13T00:48:41.840Z,18.1
2023-08-13T00:50:22.415Z,18.1
2023-08-13T00:52:02.871Z,18.1
2023-08-13T00:53:43.346Z,18.1
2023-08-13T00:55:24.068Z,18.1
2023-08-13T00:57:04.749Z,18.1
2023-08-13T00:58:45.254Z,18.1
2023-08-13T01:00:25.790Z,18.2
2023-08-13T01:02:06.342Z,18.1
2023-08-13T01:03:46.968Z,18.2
2023-08-13T01:05:27.460Z,18.2
2023-08-13T01:07:07.901Z,18.2
2023-08-13T01:08:48.368Z,18.2
2023-08-13T01:10:28.809Z,18.2
2023-08-13T01:12:09.264Z,18.3
2023-08-13T01:13:49.826Z,18.3
2023-08-13T01:15:30.284Z,18.3
2023-08-13T01:17:10.776Z,18.3
2023-08-13T01:18:51.291Z,18.3
2023-08-13T01:20:32.506Z,18.3
2023-08-13T01:22:13.401Z,18.3
2023-08-13T01:23:54.095Z,18.3
2023-08-13T01:25:34.551Z,18.3
2023-08-13T01:27:15.021Z,18.3
2023-08-13T01:28:55.490Z,18.3
2023-08-13T01:30:36.304Z,18.3
2023-08-13T01:32:17.963Z,18.3
2023-08-13T01:33:58.660Z,18.2
2023-08-13T01:35:39.278Z,18.2
2023-08-13T01:37:19.788Z,18.2
2023-08-13T01:39:00.230Z,18.2
2023-08-13T01:40:40.763Z,18.2
2023-08-13T01:42:21.249Z,18.2
2023-08-13T01:44:01.823Z,18.2
2023-08-13T01:45:42.378Z,18.1
2023-08-13T01:47:22.918Z,18.1
2023-08-13T01:49:03.374Z,18.1
2023-08-13T01:50:43.853Z,18.1
2023-08-13T01:52:24.286Z,18.1
2023-08-13T01:54:04.833Z,18.2
2023-08-13T01:55:45.420Z,18.2
2023-08-13T01:57:25.872Z,18.2
2023-08-13T01:59:06.355Z,18.2
2023-08-13T02:00:46.948Z,18.2
2023-08-13T02:03:16.119Z,18.2
2023-08-13T02:04:56.749Z,18.2
2023-08-13T02:06:37.284Z,18.2
2023-08-13T02:08:17.737Z,18.2
2023-08-13T02:09:58.188Z,18.2
2023-08-13T02:11:38.727Z,18.2
2023-08-13T02:13:19.201Z,18.1
2023-08-13T02:14:59.781Z,18.1
2023-08-13T02:16:40.326Z,18.1
2023-08-13T02:18:20.788Z,18.1
2023-08-13T02:20:01.243Z,18.1
2023-08-13T02:21:41.683Z,18.1
2023-08-13T02:23:22.171Z,18
2023-08-13T02:25:02.716Z,18
2023-08-13T02:26:43.176Z,18.1
2023-08-13T02:28:23.626Z,18
2023-08-13T02:30:04.180Z,18
2023-08-13T02:31:44.624Z,18
2023-08-13T02:33:25.089Z,18
2023-08-13T02:35:05.533Z,18
2023-08-13T02:36:45.990Z,18
2023-08-13T02:38:26.453Z,18.1
2023-08-13T02:40:06.897Z,18
2023-08-13T02:41:47.364Z,18.1
2023-08-13T02:43:27.905Z,18.1
2023-08-13T02:45:08.393Z,18.1
2023-08-13T02:46:48.850Z,18.1
2023-08-13T02:48:29.406Z,18.1
2023-08-13T02:50:10.105Z,18.1
2023-08-13T02:51:50.613Z,18.1
2023-08-13T02:53:31.060Z,18.1
2023-08-13T02:55:11.511Z,18.1
2023-08-13T02:56:51.980Z,18.1
2023-08-13T02:58:32.427Z,18.1
2023-08-13T03:00:12.913Z,18.1
2023-08-13T03:01:53.550Z,18.1
2023-08-13T03:03:53.688Z,18.1
2023-08-13T03:05:34.340Z,18.1
2023-08-13T03:07:14.876Z,18.1
2023-08-13T03:08:55.329Z,18.1
2023-08-13T03:10:35.794Z,18.1
2023-08-13T03:12:16.739Z,18.1
2023-08-13T03:13:57.202Z,18.1
2023-08-13T03:15:37.784Z,18.1
2023-08-13T03:17:18.217Z,18.1
2023-08-13T03:18:58.675Z,18.1
2023-08-13T03:20:39.130Z,18.1
2023-08-13T03:22:19.586Z,18.1
2023-08-13T03:24:00.048Z,18.1
2023-08-13T03:25:40.500Z,18.1
2023-08-13T03:27:20.949Z,18.1
2023-08-13T03:29:01.424Z,18.1
2023-08-13T03:30:41.902Z,18.1
2023-08-13T03:32:22.332Z,18.1
2023-08-13T03:34:02.865Z,18.1
2023-08-13T03:35:43.334Z,18.1
2023-08-13T03:37:23.790Z,18.1
2023-08-13T03:39:04.245Z,18.1
2023-08-13T03:40:44.698Z,18.1
2023-08-13T03:42:25.157Z,18.1
2023-08-13T03:44:05.618Z,18.1
2023-08-13T03:45:46.200Z,18.1
2023-08-13T03:47:26.668Z,18.1
2023-08-13T03:49:07.198Z,18.1
2023-08-13T03:50:47.641Z,18.1
2023-08-13T03:54:25.476Z,18.1
2023-08-13T03:56:05.936Z,18.1
2023-08-13T03:57:46.409Z,18.1
2023-08-13T03:59:26.853Z,18.1
2023-08-13T04:01:07.718Z,18.1
2023-08-13T04:02:48.620Z,18.1
2023-08-13T04:04:29.549Z,18
2023-08-13T04:06:10.100Z,18
2023-08-13T04:07:50.566Z,18
2023-08-13T04:09:31.006Z,17.9
2023-08-13T04:11:11.633Z,17.9
2023-08-13T04:12:52.139Z,17.9
2023-08-13T04:14:32.578Z,17.9
2023-08-13T04:16:13.195Z,17.9
2023-08-13T04:17:53.789Z,17.9
2023-08-13T04:19:34.251Z,17.9
2023-08-13T04:21:14.729Z,17.9
2023-08-13T04:22:55.165Z,17.9
2023-08-13T04:24:35.620Z,17.9
2023-08-13T04:26:16.088Z,17.9
2023-08-13T04:27:56.539Z,17.9
2023-08-13T04:29:37.007Z,17.9
2023-08-13T04:31:17.569Z,17.9
2023-08-13T04:32:58.099Z,17.9
2023-08-13T04:34:38.598Z,17.9
2023-08-13T04:36:19.018Z,17.9
2023-08-13T04:37:59.468Z,17.9
2023-08-13T04:39:39.933Z,17.9
2023-08-13T04:41:20.384Z,17.9
2023-08-13T04:43:00.878Z,17.9
2023-08-13T04:44:41.401Z,17.9
2023-08-13T04:46:21.892Z,17.9
2023-08-13T04:48:02.536Z,17.9
2023-08-13T04:49:43.132Z,17.9
2023-08-13T04:51:23.625Z,17.9
2023-08-13T04:53:04.098Z,17.9
2023-08-13T04:54:46.463Z,17.9
2023-08-13T04:56:26.997Z,17.9
2023-08-13T04:58:07.507Z,17.9
2023-08-13T04:59:47.956Z,17.9
2023-08-13T05:01:28.539Z,17.9
2023-08-13T05:03:09.094Z,17.9
2023-08-13T05:04:49.638Z,17.9
2023-08-13T05:06:30.088Z,17.9
2023-08-13T05:08:10.559Z,17.9
2023-08-13T05:09:51.000Z,17.9
2023-08-13T05:11:31.474Z,17.9
2023-08-13T05:13:11.923Z,17.9
2023-08-13T05:14:52.359Z,17.9
2023-08-13T05:16:32.909Z,17.9
2023-08-13T05:18:13.665Z,17.9
2023-08-13T05:19:54.134Z,17.9
2023-08-13T05:21:34.622Z,17.9
2023-08-13T05:23:15.055Z,17.9
2023-08-13T05:24:55.520Z,17.9
2023-08-13T05:26:36.006Z,17.9
2023-08-13T05:28:16.567Z,18
2023-08-13T05:29:57.089Z,18
2023-08-13T05:31:37.648Z,18
2023-08-13T05:33:18.098Z,18
2023-08-13T05:34:58.552Z,18
2023-08-13T05:36:39.016Z,18
2023-08-13T05:38:19.480Z,18
2023-08-13T05:40:00.013Z,18
2023-08-13T05:41:40.479Z,18
2023-08-13T05:43:37.827Z,18.1
2023-08-13T05:45:18.301Z,18.1
2023-08-13T05:46:58.764Z,18.1
2023-08-13T05:48:39.248Z,18.1
2023-08-13T05:50:19.769Z,18.1
2023-08-13T05:52:00.210Z,18.1
2023-08-13T05:53:40.679Z,18.1
2023-08-13T05:55:21.177Z,18.1
2023-08-13T05:57:01.675Z,18.1
2023-08-13T05:58:42.132Z,18.1
2023-08-13T06:00:22.544Z,18.1
2023-08-13T06:02:03.073Z,18.1
2023-08-13T06:03:43.661Z,18.1
2023-08-13T06:05:24.161Z,18.1
2023-08-13T06:07:04.620Z,18.1
2023-08-13T06:08:45.092Z,18.1
2023-08-13T06:10:25.556Z,18.1
2023-08-13T06:12:05.978Z,18.1
2023-08-13T06:13:46.554Z,18.1
2023-08-13T06:15:26.993Z,18.1
2023-08-13T06:17:17.332Z,18.1
2023-08-13T06:18:57.959Z,18.1
2023-08-13T06:20:38.407Z,18.1
2023-08-13T06:22:19.921Z,18.1
2023-08-13T06:24:00.459Z,18.1
2023-08-13T06:25:40.889Z,18.1
2023-08-13T06:27:21.367Z,18.1
2023-08-13T06:29:01.884Z,18.1
2023-08-13T06:30:42.441Z,18.1
2023-08-13T06:32:22.982Z,18.1
2023-08-13T06:34:03.475Z,18.1
2023-08-13T06:35:43.930Z,18.1
2023-08-13T06:37:24.400Z,18.1
2023-08-13T06:39:04.841Z,18.1
2023-08-13T06:40:45.400Z,18.1
2023-08-13T06:42:25.876Z,18.1
2023-08-13T06:44:06.318Z,18.1
2023-08-13T06:45:46.768Z,18.1
2023-08-13T06:47:27.379Z,18.1
2023-08-13T06:49:07.890Z,18.1
2023-08-13T06:50:48.363Z,18.1
2023-08-13T06:52:28.808Z,18.1
2023-08-13T06:54:09.250Z,18.1
2023-08-13T06:55:49.736Z,18.1
2023-08-13T06:57:30.157Z,18.1
2023-08-13T06:59:10.633Z,18.1
2023-08-13T07:00:51.082Z,18.1
2023-08-13T07:02:31.673Z,18.1
2023-08-13T07:04:12.199Z,18.1
2023-08-13T07:05:52.955Z,18.1
2023-08-13T07:07:33.417Z,18.1
2023-08-13T07:09:13.871Z,18.1
2023-08-13T07:10:54.355Z,18.1
2023-08-13T07:12:34.785Z,18.1
2023-08-13T07:14:15.247Z,18.1
2023-08-13T07:15:55.822Z,18.1
2023-08-13T07:17:36.470Z,18.1
2023-08-13T07:19:17.046Z,18.1
2023-08-13T07:20:57.473Z,18.1
2023-08-13T07:22:37.926Z,18.1
2023-08-13T07:24:18.465Z,18.1
2023-08-13T07:25:58.936Z,18.1
2023-08-13T07:27:39.396Z,18.1
2023-08-13T07:29:19.868Z,18.1
2023-08-13T07:31:00.344Z,18.1
2023-08-13T07:32:57.928Z,18.1
2023-08-13T07:34:38.431Z,18.1
2023-08-13T07:36:18.958Z,18.1
2023-08-13T07:37:59.594Z,18.1
2023-08-13T07:39:40.101Z,18.1
2023-08-13T07:41:20.547Z,18.1
2023-08-13T07:43:01.492Z,18.1
2023-08-13T07:44:41.976Z,18.1
2023-08-13T07:46:22.531Z,18.1
2023-08-13T07:48:03.323Z,18.1
2023-08-13T07:49:44.002Z,18.1
2023-08-13T07:51:24.889Z,18.1
2023-08-13T07:53:05.792Z,18.1
2023-08-13T07:54:46.250Z,18.1
2023-08-13T07:56:26.897Z,18.1
2023-08-13T07:58:07.396Z,18.1
2023-08-13T07:59:47.950Z,18.1
2023-08-13T08:03:19.862Z,18.1
2023-08-13T08:05:00.296Z,18.1
2023-08-13T08:06:40.819Z,18.1
2023-08-13T08:08:21.418Z,18.1
2023-08-13T08:10:01.957Z,18.1
2023-08-13T08:11:42.543Z,18.1
2023-08-13T08:13:22.981Z,18.1
2023-08-13T08:15:03.604Z,18.1
2023-08-13T08:16:44.117Z,18.1
2023-08-13T08:18:24.581Z,18.1
2023-08-13T08:20:05.415Z,18.1
2023-08-13T08:21:46.092Z,18.1
2023-08-13T08:23:26.544Z,18.1
2023-08-13T08:25:07.538Z,18.1
2023-08-13T08:26:47.969Z,18.1
2023-08-13T08:28:28.625Z,18.1
2023-08-13T08:30:09.122Z,18.1
2023-08-13T08:31:49.530Z,18.1
2023-08-13T08:33:30.021Z,18.1
2023-08-13T08:35:10.446Z,18.1
2023-08-13T08:36:50.901Z,18.1
2023-08-13T08:38:31.356Z,18.1
2023-08-13T08:40:11.825Z,18.1
2023-08-13T08:41:52.268Z,18.1
2023-08-13T08:43:32.723Z,18.2
2023-08-13T08:45:13.186Z,18.3
2023-08-13T08:46:53.781Z,18.3
2023-08-13T08:48:34.318Z,18.3
2023-08-13T08:50:14.749Z,18.4
2023-08-13T08:51:55.207Z,18.4
2023-08-13T08:53:35.667Z,18.4
2023-08-13T08:55:16.115Z,18.4
2023-08-13T08:56:56.566Z,18.4
2023-08-13T08:58:37.061Z,18.4
2023-08-13T09:00:17.482Z,18.4
2023-08-13T09:01:58.023Z,18.4
2023-08-13T09:03:38.652Z,18.4
2023-08-13T09:05:19.154Z,18.4
2023-08-13T09:06:59.620Z,18.4
2023-08-13T09:08:40.068Z,18.3
2023-08-13T09:10:20.521Z,18.3
2023-08-13T09:12:01.000Z,18.3
2023-08-13T09:13:41.436Z,18.4
2023-08-13T09:15:21.986Z,18.3
2023-08-13T09:17:02.576Z,18.3
2023-08-13T09:18:43.298Z,18.4
2023-08-13T09:20:24.010Z,18.4
2023-08-13T09:22:04.500Z,18.3
2023-08-13T09:23:44.982Z,18.4
2023-08-13T09:25:25.529Z,18.4
2023-08-13T09:27:06.003Z,18.4
2023-08-13T09:28:46.465Z,18.4
2023-08-13T09:30:26.937Z,18.4
2023-08-13T09:32:07.385Z,18.4
2023-08-13T09:33:47.873Z,18.4
2023-08-13T09:35:28.406Z,18.4
2023-08-13T09:37:08.844Z,18.3
2023-08-13T09:38:49.294Z,18.3
2023-08-13T09:40:29.813Z,18.3
2023-08-13T09:42:10.372Z,18.2
2023-08-13T09:43:50.866Z,18.2
2023-08-13T09:45:31.333Z,18.3
2023-08-13T09:47:11.778Z,18.3
2023-08-13T09:48:52.255Z,18.2
2023-08-13T09:50:32.705Z,18.2
2023-08-13T09:54:10.657Z,18.1
2023-08-13T09:55:51.115Z,18.1
2023-08-13T09:57:31.658Z,18.1
2023-08-13T09:59:12.298Z,18
2023-08-13T10:00:52.883Z,18
2023-08-13T10:02:33.459Z,18.1
2023-08-13T10:04:14.250Z,18.1
2023-08-13T10:05:54.761Z,18.1
2023-08-13T10:07:35.212Z,18.2
2023-08-13T10:09:15.675Z,18.3
2023-08-13T10:10:56.129Z,18.3
2023-08-13T10:12:36.596Z,18.2
2023-08-13T10:14:17.061Z,18.2
2023-08-13T10:15:57.504Z,18.2
2023-08-13T10:17:38.058Z,18.1
2023-08-13T10:19:18.683Z,18.1
2023-08-13T10:20:59.167Z,18.1
2023-08-13T10:22:39.637Z,18.1
2023-08-13T10:24:20.090Z,18.1
2023-08-13T10:26:00.538Z,18.1
2023-08-13T10:27:41.014Z,18.1
2023-08-13T10:29:21.467Z,18.1
2023-08-13T10:31:01.908Z,18.1
2023-08-13T10:32:42.564Z,18.1
2023-08-13T10:34:22.940Z,18.1
2023-08-13T10:36:04.440Z,18.1
2023-08-13T10:37:44.974Z,18.1
2023-08-13T10:39:25.413Z,18.2
2023-08-13T10:41:05.945Z,18.2
2023-08-13T10:42:46.431Z,18.2
2023-08-13T10:44:26.998Z,18.2
2023-08-13T10:46:07.526Z,18.2
2023-08-13T10:47:48.245Z,18.2
2023-08-13T10:49:28.865Z,18.2
2023-08-13T10:51:09.335Z,18.2
2023-08-13T10:52:49.981Z,18.2
2023-08-13T10:54:30.937Z,18.2
2023-08-13T10:56:11.564Z,18.2
2023-08-13T10:57:52.071Z,18.2
2023-08-13T10:59:32.599Z,18.2
2023-08-13T11:01:13.184Z,18.2
2023-08-13T11:02:53.774Z,18.2
2023-08-13T11:04:34.320Z,18.2
2023-08-13T11:06:14.771Z,18.2
2023-08-13T11:07:55.408Z,18.2
2023-08-13T11:09:35.883Z,18.2
2023-08-13T11:11:16.360Z,18.2
2023-08-13T11:12:56.781Z,18.2
2023-08-13T11:14:37.268Z,18.2
2023-08-13T11:16:18.032Z,18.2
2023-08-13T11:17:58.575Z,18.2
2023-08-13T11:19:39.162Z,18.2
2023-08-13T11:21:19.670Z,18.2
2023-08-13T11:23:00.141Z,18.2
2023-08-13T11:24:40.600Z,18.2
2023-08-13T11:26:21.054Z,18.2
2023-08-13T11:28:01.502Z,18.2
2023-08-13T11:29:42.071Z,18.2
2023-08-13T11:31:22.513Z,18.2
2023-08-13T11:33:03.197Z,18.2
2023-08-13T11:34:43.757Z,18.2
2023-08-13T11:36:24.177Z,18.2
2023-08-13T11:38:04.660Z,18.2
2023-08-13T11:39:45.095Z,18.2
2023-08-13T11:43:23.128Z,18.2
2023-08-13T11:45:03.575Z,18.1
2023-08-13T11:46:44.084Z,18.1
2023-08-13T11:48:24.762Z,18.1
2023-08-13T11:50:05.633Z,18.1
2023-08-13T11:51:46.133Z,18.1
2023-08-13T11:53:26.663Z,18.1
2023-08-13T11:55:07.109Z,18.1
2023-08-13T11:56:47.587Z,18.1
2023-08-13T11:58:28.033Z,18.1
2023-08-13T12:00:08.484Z,18.1
2023-08-13T12:01:48.975Z,18.1
2023-08-13T12:03:29.723Z,18.1
2023-08-13T12:05:10.278Z,18.1
2023-08-13T12:06:50.753Z,18.1
2023-08-13T12:08:31.276Z,18.1
2023-08-13T12:10:11.830Z,18.1
2023-08-13T12:11:52.288Z,18.1
2023-08-13T12:13:32.760Z,18.1
2023-08-13T12:15:13.220Z,18.1
2023-08-13T12:16:53.762Z,18.1
2023-08-13T12:18:34.206Z,18.1
2023-08-13T12:20:14.959Z,18.2
2023-08-13T12:21:55.442Z,18.2
2023-08-13T12:23:36.049Z,18.2
2023-08-13T12:25:16.628Z,18.2
2023-08-13T12:26:57.116Z,18.2
2023-08-13T12:28:37.578Z,18.1
2023-08-13T12:30:18.027Z,18.2
2023-08-13T12:31:58.465Z,18.1
2023-08-13T12:33:38.966Z,18.1
2023-08-13T12:35:19.593Z,18.2
2023-08-13T12:37:00.095Z,18.2
2023-08-13T12:38:43.424Z,18.2
2023-08-13T12:40:23.940Z,18.2
2023-08-13T12:42:04.389Z,18.2
2023-08-13T12:43:44.880Z,18.2
2023-08-13T12:45:25.323Z,18.2
2023-08-13T12:47:05.762Z,18.3
2023-08-13T12:48:46.241Z,18.3
2023-08-13T12:50:26.788Z,18.2
2023-08-13T12:52:07.568Z,18.3
2023-08-13T12:53:48.374Z,18.3
2023-08-13T12:55:28.853Z,18.2
2023-08-13T12:57:09.532Z,18.2
2023-08-13T12:58:50.237Z,18.3
2023-08-13T13:00:30.762Z,18.3
2023-08-13T13:02:11.287Z,18.3
2023-08-13T13:03:51.772Z,18.3
2023-08-13T13:05:32.229Z,18.3
2023-08-13T13:07:12.699Z,18.3
2023-08-13T13:08:53.204Z,18.4
2023-08-13T13:10:33.673Z,18.4
2023-08-13T13:12:14.489Z,18.4
2023-08-13T13:13:55.175Z,18.4
2023-08-13T13:15:35.660Z,18.4
2023-08-13T13:17:16.151Z,18.4
2023-08-13T13:18:56.696Z,18.4
2023-08-13T13:20:37.229Z,18.4
2023-08-13T13:22:18.772Z,18.4
2023-08-13T13:23:59.564Z,18.4
2023-08-13T13:25:40.009Z,18.3
2023-08-13T13:27:20.472Z,18.3
2023-08-13T13:29:00.919Z,18.3
2023-08-13T13:30:59.199Z,18.3
2023-08-13T13:32:39.909Z,18.3
2023-08-13T13:34:20.419Z,18.3
2023-08-13T13:36:01.023Z,18.3
2023-08-13T13:37:41.719Z,18.3
2023-08-13T13:39:22.192Z,18.3
2023-08-13T13:41:02.682Z,18.5
2023-08-13T13:42:43.123Z,18.6
2023-08-13T13:44:23.566Z,18.5
2023-08-13T13:46:04.225Z,18.5
2023-08-13T13:47:44.705Z,18.4
2023-08-13T13:49:25.251Z,18.4
2023-08-13T13:51:05.810Z,18.4
2023-08-13T13:52:46.255Z,18.3
2023-08-13T13:54:26.775Z,18.3
2023-08-13T13:56:07.279Z,18.3
2023-08-13T13:57:47.726Z,18.3
2023-08-13T13:59:28.231Z,18.3
2023-08-13T14:03:23.279Z,18.3
2023-08-13T14:05:03.778Z,18.3
2023-08-13T14:06:44.256Z,18.3
2023-08-13T14:08:24.700Z,18.3
2023-08-13T14:10:05.248Z,18.3
2023-08-13T14:11:45.708Z,18.3
2023-08-13T14:13:26.323Z,18.3
2023-08-13T14:15:07.024Z,18.3
2023-08-13T14:16:47.754Z,18.3
2023-08-13T14:18:28.256Z,18.3
2023-08-13T14:20:08.694Z,18.3
2023-08-13T14:21:49.165Z,18.3
2023-08-13T14:23:29.609Z,18.3
2023-08-13T14:25:10.055Z,18.3
2023-08-13T14:26:50.522Z,18.3
2023-08-13T14:28:30.987Z,18.3
2023-08-13T14:30:11.426Z,18.3
2023-08-13T14:31:51.981Z,18.3
2023-08-13T14:33:32.571Z,18.3
2023-08-13T14:35:13.002Z,18.3
2023-08-13T14:36:53.496Z,18.3
2023-08-13T14:38:34.030Z,18.3
2023-08-13T14:40:18.558Z,18.3
2023-08-13T14:41:59.122Z,18.3
2023-08-13T14:43:39.572Z,18.3
2023-08-13T14:45:20.030Z,18.3
2023-08-13T14:47:00.505Z,18.3
2023-08-13T14:48:40.942Z,18.3
2023-08-13T14:50:21.396Z,18.3
2023-08-13T14:52:01.885Z,18.3
2023-08-13T14:53:42.312Z,18.3
2023-08-13T14:55:22.772Z,18.3
2023-08-13T14:57:03.294Z,18.3
2023-08-13T14:58:43.786Z,18.4
2023-08-13T15:00:25.876Z,18.3
2023-08-13T15:02:06.506Z,18.4
2023-08-13T15:03:47.223Z,18.3
2023-08-13T15:05:27.765Z,18.3
2023-08-13T15:07:08.248Z,18.3
2023-08-13T15:08:48.673Z,18.4
2023-08-13T15:10:29.123Z,18.4
2023-08-13T15:12:09.592Z,18.4
2023-08-13T15:13:50.039Z,18.4
2023-08-13T15:15:30.561Z,18.4
2023-08-13T15:17:11.048Z,18.4
2023-08-13T15:18:51.502Z,18.4
2023-08-13T15:20:31.964Z,18.4
2023-08-13T15:22:12.446Z,18.4
2023-08-13T15:23:52.893Z,18.4
2023-08-13T15:25:56.992Z,18.4
2023-08-13T15:27:37.532Z,18.4
2023-08-13T15:29:18.000Z,18.4
2023-08-13T15:30:58.725Z,18.4
2023-08-13T15:32:39.419Z,18.4
2023-08-13T15:34:19.972Z,18.4
2023-08-13T15:36:00.913Z,18.4
2023-08-13T15:37:41.483Z,18.4
2023-08-13T15:39:21.957Z,18.4
2023-08-13T15:41:02.413Z,18.4
2023-08-13T15:42:42.875Z,18.4
2023-08-13T15:44:23.321Z,18.4
2023-08-13T15:46:03.778Z,18.4
2023-08-13T15:47:44.309Z,18.4
2023-08-13T15:49:24.792Z,18.4
2023-08-13T15:51:05.252Z,18.4
2023-08-13T15:54:43.137Z,18.4
2023-08-13T15:56:23.606Z,18.4
2023-08-13T15:58:04.082Z,18.4
2023-08-13T15:59:44.507Z,18.4
2023-08-13T16:01:25.071Z,18.4
2023-08-13T16:03:05.745Z,18.4
2023-08-13T16:04:46.418Z,18.4
2023-08-13T16:06:26.974Z,18.4
2023-08-13T16:08:11.094Z,18.4
2023-08-13T16:09:51.538Z,18.4
2023-08-13T16:11:32.024Z,18.4
2023-08-13T16:13:12.451Z,18.4
2023-08-13T16:14:52.902Z,18.4
2023-08-13T16:16:33.687Z,18.4
2023-08-13T16:18:14.247Z,18.4
2023-08-13T16:19:55.203Z,18.4
2023-08-13T16:21:35.836Z,18.4
2023-08-13T16:23:16.341Z,18.4
2023-08-13T16:24:56.768Z,18.4
2023-08-13T16:26:37.411Z,18.4
2023-08-13T16:28:17.879Z,18.4
2023-08-13T16:29:58.341Z,18.4
2023-08-13T16:31:38.889Z,18.4
2023-08-13T16:33:19.451Z,18.4
2023-08-13T16:35:00.025Z,18.4
2023-08-13T16:36:40.474Z,18.4
2023-08-13T16:38:20.940Z,18.4
2023-08-13T16:40:01.407Z,18.4
2023-08-13T16:41:41.830Z,18.4
2023-08-13T16:43:22.297Z,18.4
2023-08-13T16:45:02.767Z,18.4
2023-08-13T16:46:43.325Z,18.4
2023-08-13T16:48:23.774Z,18.4
2023-08-13T16:50:17.305Z,18.4
2023-08-13T16:51:57.776Z,18.4
2023-08-13T16:53:38.288Z,18.4
2023-08-13T16:55:18.825Z,18.4
2023-08-13T16:56:59.306Z,18.4
2023-08-13T16:58:39.821Z,18.4
2023-08-13T17:00:20.280Z,18.4
2023-08-13T17:02:00.823Z,18.4
2023-08-13T17:03:41.542Z,18.4
2023-08-13T17:05:22.038Z,18.4
2023-08-13T17:07:02.494Z,18.4
2023-08-13T17:08:43.053Z,18.4
2023-08-13T17:10:23.580Z,18.4
2023-08-13T17:12:04.069Z,18.4
2023-08-13T17:13:44.583Z,18.4
2023-08-13T17:15:28.251Z,18.4
2023-08-13T17:17:08.717Z,18.4
2023-08-13T17:18:49.194Z,18.4
2023-08-13T17:20:29.632Z,18.4
2023-08-13T17:22:10.085Z,18.4
2023-08-13T17:23:50.580Z,18.4
2023-08-13T17:25:31.057Z,18.4
2023-08-13T17:27:11.545Z,18.3
2023-08-13T17:28:52.008Z,18.3
2023-08-13T17:30:32.469Z,18.2
2023-08-13T17:32:12.924Z,18.2
2023-08-13T17:33:53.391Z,18.2
2023-08-13T17:35:33.835Z,18.3
2023-08-13T17:37:14.766Z,18.3
2023-08-13T17:38:55.559Z,18.3
2023-08-13T17:40:36.018Z,18.3
2023-08-13T17:42:33.455Z,18.3
2023-08-13T17:44:13.924Z,18.4
2023-08-13T17:45:54.478Z,18.4
2023-08-13T17:47:35.053Z,18.5
2023-08-13T17:52:43.490Z,18.6
2023-08-13T17:54:10.633Z,18.6
2023-08-13T18:00:47.983Z,18.4
2023-08-13T18:02:28.781Z,18.4
2023-08-13T18:04:09.389Z,18.4
2023-08-13T18:05:49.869Z,18.4
2023-08-13T18:07:30.466Z,18.3
2023-08-13T18:09:10.967Z,18.3
2023-08-13T18:10:51.457Z,18.3
2023-08-13T18:12:31.971Z,18.3
2023-08-13T18:14:12.434Z,18.3
2023-08-13T18:15:53.013Z,18.3
2023-08-13T18:17:33.557Z,18.3
2023-08-13T18:19:14.397Z,18.3
2023-08-13T18:20:54.873Z,18.3
2023-08-13T18:22:35.327Z,18.3
2023-08-13T18:24:15.872Z,18.3
2023-08-13T18:25:56.371Z,18.3
2023-08-13T18:27:36.807Z,18.3
2023-08-13T18:29:17.374Z,18.3
2023-08-13T18:30:58.023Z,18.4
2023-08-13T18:32:38.694Z,18.4
2023-08-13T18:34:19.157Z,18.4
2023-08-13T18:35:59.585Z,18.4
2023-08-13T18:37:40.048Z,18.4
2023-08-13T18:39:20.510Z,18.4
2023-08-13T18:41:01.068Z,18.4
2023-08-13T18:42:41.510Z,18.4
2023-08-13T18:44:21.982Z,18.4
2023-08-13T18:46:02.418Z,18.4
2023-08-13T18:47:43.088Z,18.4
2023-08-13T18:49:23.599Z,18.4
2023-08-13T18:51:04.102Z,18.4
2023-08-13T18:52:44.622Z,18.4
2023-08-13T18:54:25.123Z,18.4
2023-08-13T18:56:05.719Z,18.4
2023-08-13T18:57:46.316Z,18.4
2023-08-13T18:59:26.787Z,18.4
2023-08-13T19:01:07.261Z,18.4
2023-08-13T19:02:47.858Z,18.4
2023-08-13T19:04:28.362Z,18.4
2023-08-13T19:06:08.812Z,18.4
2023-08-13T19:07:49.274Z,18.4
2023-08-13T19:09:29.723Z,18.4
2023-08-13T19:11:10.383Z,18.4
2023-08-13T19:12:50.839Z,18.4
2023-08-13T19:14:31.294Z,18.4
2023-08-13T19:16:11.852Z,18.4
2023-08-13T19:17:52.383Z,18.4
2023-08-13T19:19:32.863Z,18.4
2023-08-13T19:21:13.326Z,18.4
2023-08-13T19:22:53.780Z,18.4
2023-08-13T19:24:34.245Z,18.4
2023-08-13T19:26:14.908Z,18.4
2023-08-13T19:27:55.356Z,18.4
2023-08-13T19:29:35.811Z,18.4
2023-08-13T19:31:16.350Z,18.4
2023-08-13T19:33:00.110Z,18.4
2023-08-13T19:34:40.655Z,18.4
2023-08-13T19:36:21.105Z,18.4
2023-08-13T19:38:01.562Z,18.4
2023-08-13T19:39:42.030Z,18.4
2023-08-13T19:41:22.502Z,18.4
2023-08-13T19:43:02.937Z,18.4
2023-08-13T19:44:43.395Z,18.4
2023-08-13T19:45:00.352Z,18.4
2023-08-13T19:46:40.882Z,18.4
2023-08-13T19:48:21.334Z,18.4
2023-08-13T19:50:01.794Z,18.5
2023-08-13T19:51:42.433Z,18.4
2023-08-13T19:53:22.918Z,18.4
2023-08-13T19:55:03.378Z,18.4
2023-08-13T19:56:43.934Z,18.5
2023-08-13T19:58:24.488Z,18.4
2023-08-13T20:00:04.932Z,18.5
2023-08-13T20:01:45.524Z,18.4
2023-08-13T20:03:26.411Z,18.5
2023-08-13T20:05:06.914Z,18.5
2023-08-13T20:06:47.363Z,18.5
2023-08-13T20:08:27.986Z,18.5
2023-08-13T20:10:08.582Z,18.5
2023-08-13T20:11:49.067Z,18.5
2023-08-13T20:13:29.606Z,18.5
2023-08-13T20:15:10.050Z,18.5
2023-08-13T20:16:50.621Z,18.5
2023-08-13T20:18:31.184Z,18.5
2023-08-13T20:20:11.745Z,18.5
2023-08-13T20:21:52.342Z,18.5
2023-08-13T20:23:32.850Z,18.5
2023-08-13T20:25:13.383Z,18.5
2023-08-13T20:26:53.967Z,18.5
2023-08-13T20:28:34.408Z,18.5
2023-08-13T20:30:14.865Z,18.5
2023-08-13T20:31:55.433Z,18.5
2023-08-13T20:33:35.983Z,18.5
2023-08-13T20:35:16.468Z,18.5
2023-08-13T20:36:56.909Z,18.5
2023-08-13T20:38:37.354Z,18.5
2023-08-13T20:40:17.816Z,18.5
2023-08-13T20:41:58.318Z,18.5
2023-08-13T20:43:38.826Z,18.5
2023-08-13T20:45:19.395Z,18.5
2023-08-13T20:46:59.937Z,18.5
2023-08-13T20:48:40.386Z,18.5
2023-08-13T20:50:20.965Z,18.5
2023-08-13T20:52:01.624Z,18.5
2023-08-13T20:53:42.083Z,18.5
2023-08-13T20:55:22.539Z,18.5
2023-08-13T20:57:03.012Z,18.5
2023-08-13T20:58:43.643Z,18.5
2023-08-13T21:00:24.159Z,18.5
2023-08-13T21:03:24.497Z,18.5
2023-08-13T21:05:04.940Z,18.5
2023-08-13T21:06:45.402Z,18.5
2023-08-13T21:08:25.853Z,18.5
2023-08-13T21:10:06.321Z,18.5
2023-08-13T21:11:46.781Z,18.5
2023-08-13T21:13:27.252Z,18.5
2023-08-13T21:15:07.868Z,18.5
2023-08-13T21:16:48.366Z,18.6
2023-08-13T21:18:28.903Z,18.5
2023-08-13T21:20:09.354Z,18.5
2023-08-13T21:21:49.905Z,18.5
2023-08-13T21:23:30.372Z,18.5
2023-08-13T21:25:10.886Z,18.5
2023-08-13T21:26:51.382Z,18.5
2023-08-13T21:28:32.053Z,18.5
2023-08-13T21:30:12.781Z,18.5
2023-08-13T21:31:53.253Z,18.5
2023-08-13T21:33:33.724Z,18.5
2023-08-13T21:35:15.691Z,18.5
2023-08-13T21:36:56.351Z,18.5
2023-08-13T21:38:36.819Z,18.5
2023-08-13T21:40:17.349Z,18.5
2023-08-13T21:41:57.941Z,18.5
2023-08-13T21:43:38.415Z,18.5
2023-08-13T21:45:18.847Z,18.5
2023-08-13T21:46:59.324Z,18.6
2023-08-13T21:48:39.754Z,18.6
2023-08-13T21:50:20.215Z,18.6
2023-08-13T21:52:00.671Z,18.5
2023-08-13T21:53:41.121Z,18.5
2023-08-13T21:55:21.594Z,18.6
2023-08-13T21:57:02.043Z,18.6
2023-08-13T21:58:42.533Z,18.5
2023-08-13T22:00:22.943Z,18.5
2023-08-13T22:02:03.420Z,18.5
2023-08-13T22:03:44.200Z,18.5
2023-08-13T22:05:24.719Z,18.5
2023-08-13T22:07:05.176Z,18.5
2023-08-13T22:08:45.637Z,18.5
2023-08-13T22:10:26.092Z,18.5
2023-08-13T22:12:06.544Z,18.5
2023-08-13T22:13:47.021Z,18.5
2023-08-13T22:15:27.462Z,18.5
2023-08-13T22:17:07.913Z,18.5
2023-08-13T22:18:48.366Z,18.6
2023-08-13T22:20:28.836Z,18.6
2023-08-13T22:22:09.283Z,18.5
2023-08-13T22:23:49.760Z,18.6
2023-08-13T22:25:30.201Z,18.6
2023-08-13T22:27:10.641Z,18.5
2023-08-13T22:28:51.218Z,18.6
2023-08-13T22:30:31.771Z,18.5
2023-08-13T22:32:12.225Z,18.5
2023-08-13T22:33:52.686Z,18.5
2023-08-13T22:35:33.241Z,18.5
2023-08-13T22:37:13.698Z,18.5
2023-08-13T22:38:54.236Z,18.6
2023-08-13T22:40:34.706Z,18.6
2023-08-13T22:42:15.572Z,18.5
2023-08-13T22:43:56.338Z,18.5
2023-08-13T22:45:36.807Z,18.5